METAR AND TAF INFORMATION
METAR FOR LFLB
ADDS - METARS form results

(2006 UTC 24 March 2019)
Data provider http://aviationweather.gov/metar/data/
 
METAR text: LFLB 242000Z AUTO 20004KT CAVOK 10/03 Q1022 NOSIG
Conditions at: LFLB (CHAMBERY/AIX BAI, FR) observed 2000 UTC 24 March 2019
Temperature: 10.0°C (50°F)
Dewpoint: 3.0°C (37°F) [RH = 62%]
Pressure (altimeter): 30.18 inches Hg (1022.0 mb)
Winds: from the SSW (200 degrees) at 5 MPH (4 knots; 2.1 m/s)
Visibility: 6 or more miles (10+ km)
Ceiling: ceiling and visibility are OK
Clouds: unknown
Weather: no significant weather observed at this time

METAR text: LFLB 241930Z AUTO 21003KT 170V240 CAVOK 12/03 Q1022 NOSIG
Conditions at: LFLB (CHAMBERY/AIX BAI, FR) observed 1930 UTC 24 March 2019
Temperature: 12.0°C (54°F)
Dewpoint: 3.0°C (37°F) [RH = 54%]
Pressure (altimeter): 30.18 inches Hg (1022.0 mb)
Winds: from the SSW (210 degrees) at 3 MPH (3 knots; 1.5 m/s)
Visibility: 6 or more miles (10+ km)
Ceiling: ceiling and visibility are OK
Clouds: unknown
Weather: no significant weather observed at this time

Forecast for: LFLB (CHAMBERY/AIX BAI, FR)
Text: TAF LFLB 241700Z 2418/2518 36006KT CAVOK
Forecast period: 1800 UTC 24 March 2019 to 0900 UTC 25 March 2019
Forecast type: FROM: standard forecast or significant change
Winds: from the N (360 degrees) at 7 MPH (6 knots; 3.1 m/s)
Visibility: 6 or more miles 10+ km)
Ceiling: unknown
Clouds: missing
Weather: NSW  (no significant weather)
Text: BECMG 2509/2512 36012KT
Forecast period: 0900 to 1800 UTC 25 March 2019
Forecast type: BECOMING: Conditions expected to become as follows by 1200 UTC 25 March 2019
Winds: from the N (360 degrees) at 14 MPH (12 knots; 6.2 m/s)
Visibility: 6 or more miles 10+ km)
Ceiling: unknown
Clouds: missing
Weather: NSW  (no significant weather)
Text: PROB40
Forecast period: 1300 to 1800 UTC 25 March 2019
Forecast type: TEMPORARY: The following changes expected for less than half the time period
Winds: from the N (360 degrees) at 17 MPH (15 knots; 7.7 m/s)
gusting to 29 MPH (25 knots; 12.9 m/s)
Visibility: missing
Ceiling: unknown
Clouds: missing
Weather: no significant weather forecast for this period

AIRPORT MAP

RUNWAY INFORMATION
Runway 18 Runway length 6628 ft Runway width 148 ft
Runway elevation 769 ft Runway displaced threshold 755 ft Runway heading 176
Runway 36 Runway length 6628 ft Runway width 148 ft
Runway elevation 778 ft Runway displaced threshold 460 ft Runway heading 356

AIRPORT FREQUENCIES
Type APP Name CHAMBERY A Frequency 123.7 MHZ
Type ATIS Name CHAMBERY A Frequency 124.575 MHZ
Type TWR Name CHAMBERY T Frequency 118.3 MHZ

AIRPORT NEAR NAVIGATION AIDS